Time;durP1;ratioP1;P1;durP2;ratioP2;P2;SDS_P1;SDS_P2;PMS_P1;PMS_P2;Temp;Humidity;BMP_temperature;BMP_pressure;BME280_temperature;BME280_humidity;BME280_pressure;Samples;Min_cycle;Max_cycle;Signal;HPM_P1;HPM_P2
2022/04/19 00:00:56;;;;;;;7.03;6.32;;;;;;;;;;6246587;23;20079;-79
2022/04/19 00:03:23;;;;;;;8.70;6.15;;;;;;;;;;6246363;23;20084;-80
2022/04/19 00:05:49;;;;;;;7.55;6.70;;;;;;;;;;6246569;23;20020;-79
2022/04/19 00:08:16;;;;;;;8.50;6.88;;;;;;;;;;6246508;23;20011;-79
2022/04/19 00:10:43;;;;;;;8.20;7.07;;;;;;;;;;6246385;23;20003;-78
2022/04/19 00:13:10;;;;;;;6.95;5.80;;;;;;;;;;6246332;23;20129;-79
2022/04/19 00:15:38;;;;;;;8.20;6.65;;;;;;;;;;6246350;23;20451;-79
2022/04/19 00:18:05;;;;;;;8.32;7.18;;;;;;;;;;6246510;23;20030;-78
2022/04/19 00:20:33;;;;;;;9.05;7.10;;;;;;;;;;6246343;23;20005;-79
2022/04/19 00:23:01;;;;;;;8.18;6.93;;;;;;;;;;6246162;23;20004;-79
2022/04/19 00:25:28;;;;;;;8.32;7.05;;;;;;;;;;6246274;23;20008;-79
2022/04/19 00:27:54;;;;;;;10.07;8.00;;;;;;;;;;6246500;23;20066;-79
2022/04/19 00:30:20;;;;;;;13.13;9.80;;;;;;;;;;6246290;23;20083;-79
2022/04/19 00:32:46;;;;;;;15.18;10.90;;;;;;;;;;6246402;23;19992;-79
2022/04/19 00:35:12;;;;;;;10.43;8.30;;;;;;;;;;6246449;23;20012;-79
2022/04/19 00:37:39;;;;;;;8.98;7.97;;;;;;;;;;6246104;23;20004;-79
2022/04/19 00:40:06;;;;;;;9.35;7.55;;;;;;;;;;6246564;23;20305;-79
2022/04/19 00:42:33;;;;;;;10.88;8.50;;;;;;;;;;6219518;23;20007;-79
2022/04/19 00:45:00;;;;;;;9.57;7.72;;;;;;;;;;6246152;23;20031;-79
2022/04/19 00:47:27;;;;;;;10.55;7.82;;;;;;;;;;6246108;23;20000;-79
2022/04/19 00:49:53;;;;;;;7.43;6.63;;;;;;;;;;6245908;23;20004;-79
2022/04/19 00:52:19;;;;;;;9.50;7.40;;;;;;;;;;6246113;23;20134;-79
2022/04/19 00:54:47;;;;;;;8.93;7.55;;;;;;;;;;6246404;23;20008;-79
2022/04/19 00:57:13;;;;;;;8.13;7.30;;;;;;;;;;6246140;23;20004;-79
2022/04/19 00:59:39;;;;;;;10.20;7.32;;;;;;;;;;6246177;23;20004;-79
2022/04/19 01:02:06;;;;;;;9.48;8.00;;;;;;;;;;6246195;23;20004;-79
2022/04/19 01:04:32;;;;;;;9.20;8.10;;;;;;;;;;6218953;23;20087;-79
2022/04/19 01:06:58;;;;;;;10.82;9.25;;;;;;;;;;6246038;23;20371;-80
2022/04/19 01:09:28;;;;;;;11.35;8.93;;;;;;;;;;6245989;23;20440;-79
2022/04/19 01:14:39;;;;;;;8.57;7.22;;;;;;;;;;6246024;23;20015;-80
2022/04/19 01:17:08;;;;;;;10.13;7.82;;;;;;;;;;6246079;23;20004;-80
2022/04/19 01:19:44;;;;;;;9.20;7.20;;;;;;;;;;6245978;23;20000;-79
2022/04/19 01:22:12;;;;;;;8.98;6.97;;;;;;;;;;6246090;23;20304;-78
2022/04/19 01:24:39;;;;;;;9.15;8.02;;;;;;;;;;6245937;23;20082;-79
2022/04/19 01:27:05;;;;;;;10.55;7.28;;;;;;;;;;6245981;23;20006;-77
2022/04/19 01:29:35;;;;;;;8.38;7.03;;;;;;;;;;6245926;23;20007;-79
2022/04/19 01:32:02;;;;;;;9.60;7.88;;;;;;;;;;6246154;23;20327;-79
2022/04/19 01:34:28;;;;;;;9.32;6.88;;;;;;;;;;6245896;23;20004;-80
2022/04/19 01:36:54;;;;;;;8.52;7.22;;;;;;;;;;6246424;23;20058;-80
2022/04/19 01:42:05;;;;;;;;;;;;;;;;;;6246463;23;20485;-80
2022/04/19 01:44:33;;;;;;;8.02;6.55;;;;;;;;;;6245897;23;19907;-79
2022/04/19 01:47:01;;;;;;;8.85;6.68;;;;;;;;;;6245862;23;19997;-79
2022/04/19 01:49:27;;;;;;;10.10;7.05;;;;;;;;;;6245826;23;20143;-78
2022/04/19 01:51:53;;;;;;;10.07;6.93;;;;;;;;;;6245825;23;20427;-77
2022/04/19 01:54:19;;;;;;;9.27;7.40;;;;;;;;;;6245562;23;20030;-77
2022/04/19 01:56:45;;;;;;;10.15;7.88;;;;;;;;;;6245835;23;20459;-79
2022/04/19 01:59:12;;;;;;;8.60;6.90;;;;;;;;;;6245859;23;20000;-78
2022/04/19 02:01:38;;;;;;;14.35;7.75;;;;;;;;;;6245872;23;20008;-78
2022/04/19 02:04:07;;;;;;;8.88;7.97;;;;;;;;;;6247512;23;20008;-78
2022/04/19 02:06:33;;;;;;;8.77;7.65;;;;;;;;;;6247536;23;20004;-78
2022/04/19 02:09:02;;;;;;;8.77;7.88;;;;;;;;;;6220734;23;20015;-78
2022/04/19 02:11:28;;;;;;;9.05;7.90;;;;;;;;;;6247519;23;20004;-78
2022/04/19 02:13:54;;;;;;;10.52;9.52;;;;;;;;;;6247712;23;20004;-78
2022/04/19 02:16:21;;;;;;;10.90;8.10;;;;;;;;;;6247496;23;20447;-78
2022/04/19 02:18:49;;;;;;;9.60;8.57;;;;;;;;;;6247559;23;20004;-78
2022/04/19 02:21:15;;;;;;;9.15;8.18;;;;;;;;;;6247516;23;20000;-78
2022/04/19 02:23:41;;;;;;;8.50;7.63;;;;;;;;;;6247283;23;20017;-78
2022/04/19 02:26:08;;;;;;;9.52;8.52;;;;;;;;;;6248047;23;20004;-78
2022/04/19 02:28:34;;;;;;;10.40;8.55;;;;;;;;;;6247397;23;20000;-78
2022/04/19 02:31:00;;;;;;;10.80;9.57;;;;;;;;;;6220526;23;20071;-79
2022/04/19 02:33:28;;;;;;;12.70;9.05;;;;;;;;;;6247504;23;20071;-80
2022/04/19 02:35:55;;;;;;;10.70;8.82;;;;;;;;;;6247798;23;20018;-79
2022/04/19 02:38:21;;;;;;;11.45;8.68;;;;;;;;;;6247250;23;20000;-79
2022/04/19 02:40:49;;;;;;;9.15;8.15;;;;;;;;;;6247797;23;20008;-79
2022/04/19 02:43:15;;;;;;;9.13;8.10;;;;;;;;;;6220348;23;20440;-79
2022/04/19 02:45:42;;;;;;;8.35;7.43;;;;;;;;;;6220399;23;20022;-80
2022/04/19 02:48:09;;;;;;;8.93;8.02;;;;;;;;;;6247245;23;20004;-80
2022/04/19 02:50:40;;;;;;;9.98;7.72;;;;;;;;;;6247248;23;20438;-80
2022/04/19 02:53:07;;;;;;;8.20;6.95;;;;;;;;;;6246877;23;20091;-78
2022/04/19 02:55:33;;;;;;;7.90;6.90;;;;;;;;;;6247517;23;19997;-79
2022/04/19 02:57:59;;;;;;;8.90;7.53;;;;;;;;;;6247248;23;20004;-78
2022/04/19 03:00:25;;;;;;;8.05;6.85;;;;;;;;;;6247391;23;20007;-79
2022/04/19 03:02:52;;;;;;;7.72;6.80;;;;;;;;;;6246984;23;20087;-79
2022/04/19 03:05:19;;;;;;;9.45;7.25;;;;;;;;;;6220192;23;20436;-79
2022/04/19 03:07:46;;;;;;;8.50;7.45;;;;;;;;;;6246969;23;20102;-80
2022/04/19 03:10:13;;;;;;;8.00;7.18;;;;;;;;;;6247081;23;20005;-79
2022/04/19 03:12:39;;;;;;;8.77;7.32;;;;;;;;;;6247054;23;20000;-79
2022/04/19 03:15:06;;;;;;;10.02;7.50;;;;;;;;;;6246835;23;20000;-79
2022/04/19 03:17:34;;;;;;;9.50;7.55;;;;;;;;;;6247066;23;20423;-80
2022/04/19 03:20:01;;;;;;;9.45;7.75;;;;;;;;;;6247105;23;20079;-79
2022/04/19 03:27:41;;;;;;;11.05;8.27;;;;;;;;;;6246853;23;20434;-79
2022/04/19 03:27:57;;;;;;;9.50;7.85;;;;;;;;;;6247034;23;20546;-79
2022/04/19 03:30:23;;;;;;;7.90;7.05;;;;;;;;;;6246758;23;20022;-78
2022/04/19 03:32:52;;;;;;;8.15;7.18;;;;;;;;;;6246890;23;19996;-80
2022/04/19 03:35:21;;;;;;;9.57;7.63;;;;;;;;;;6219795;23;20007;-79
2022/04/19 03:37:47;;;;;;;7.93;6.55;;;;;;;;;;6247252;23;20010;-80
2022/04/19 03:40:14;;;;;;;8.40;7.47;;;;;;;;;;6247089;23;20008;-84
2022/04/19 03:42:41;;;;;;;7.57;6.78;;;;;;;;;;6219764;23;20313;-78
2022/04/19 03:45:18;;;;;;;8.85;6.63;;;;;;;;;;6246308;23;20004;-80
2022/04/19 03:47:49;;;;;;;7.72;6.20;;;;;;;;;;6246698;23;20050;-80
2022/04/19 03:50:15;;;;;;;7.82;6.70;;;;;;;;;;6246171;23;20010;-79
2022/04/19 03:52:42;;;;;;;9.75;6.88;;;;;;;;;;6219556;23;20099;-76
2022/04/19 03:55:08;;;;;;;7.43;6.72;;;;;;;;;;6219381;23;20008;-79
2022/04/19 03:57:35;;;;;;;7.63;6.45;;;;;;;;;;6246556;23;20034;-82
2022/04/19 04:00:01;;;;;;;7.90;6.57;;;;;;;;;;6246460;23;20009;-78
2022/04/19 04:02:27;;;;;;;7.80;6.93;;;;;;;;;;6246628;23;20027;-81
2022/04/19 04:04:53;;;;;;;8.00;7.00;;;;;;;;;;6246502;23;20015;-79
2022/04/19 04:07:19;;;;;;;7.22;6.53;;;;;;;;;;6246409;23;20023;-81
2022/04/19 04:09:46;;;;;;;8.32;6.57;;;;;;;;;;6246434;23;20070;-78
2022/04/19 04:12:15;;;;;;;8.13;6.40;;;;;;;;;;6245697;23;20011;-79
2022/04/19 04:14:43;;;;;;;9.15;7.30;;;;;;;;;;6219407;23;20000;-78
2022/04/19 04:17:09;;;;;;;10.70;8.65;;;;;;;;;;6246241;23;20016;-81
2022/04/19 04:19:35;;;;;;;8.90;7.32;;;;;;;;;;6246369;23;20007;-78
2022/04/19 04:22:01;;;;;;;9.35;7.88;;;;;;;;;;6246269;23;20000;-79
2022/04/19 04:24:28;;;;;;;8.07;7.28;;;;;;;;;;6245832;23;20083;-81
2022/04/19 04:26:54;;;;;;;6.93;6.22;;;;;;;;;;6245999;23;20027;-80
2022/04/19 04:29:20;;;;;;;8.63;6.70;;;;;;;;;;6246069;23;20420;-79
2022/04/19 04:31:46;;;;;;;9.48;7.70;;;;;;;;;;6219196;23;20010;-79
2022/04/19 04:34:12;;;;;;;7.43;6.68;;;;;;;;;;6246147;23;20391;-81
2022/04/19 04:36:38;;;;;;;9.27;7.40;;;;;;;;;;6246724;23;20404;-80
2022/04/19 04:39:04;;;;;;;8.85;6.68;;;;;;;;;;6246164;23;20036;-80
2022/04/19 04:41:30;;;;;;;8.88;7.68;;;;;;;;;;6246265;23;20007;-80
2022/04/19 04:43:59;;;;;;;8.30;6.82;;;;;;;;;;6245526;23;20012;-80
2022/04/19 04:51:55;;;;;;;9.32;7.47;;;;;;;;;;6246211;23;20062;-79
2022/04/19 04:54:21;;;;;;;8.70;6.38;;;;;;;;;;6218586;23;20343;-83
2022/04/19 04:56:48;;;;;;;9.40;7.00;;;;;;;;;;6220036;23;20072;-79
2022/04/19 04:59:14;;;;;;;9.68;7.95;;;;;;;;;;6246044;23;20004;-81
2022/04/19 05:01:40;;;;;;;7.97;6.97;;;;;;;;;;6246072;23;20024;-80
2022/04/19 05:04:06;;;;;;;8.52;7.03;;;;;;;;;;6219090;23;20343;-79
2022/04/19 05:06:32;;;;;;;11.60;9.48;;;;;;;;;;6246306;23;20012;-81
2022/04/19 05:08:58;;;;;;;8.50;6.78;;;;;;;;;;6246002;23;20000;-80
2022/04/19 05:11:25;;;;;;;8.45;6.32;;;;;;;;;;6246113;23;20004;-81
2022/04/19 05:13:51;;;;;;;9.77;6.75;;;;;;;;;;6246285;23;20000;-81
2022/04/19 05:16:17;;;;;;;13.77;7.03;;;;;;;;;;6245493;23;20004;-80
2022/04/19 05:18:43;;;;;;;9.68;6.85;;;;;;;;;;6246101;23;20015;-80
2022/04/19 05:21:09;;;;;;;7.90;6.72;;;;;;;;;;6244992;23;20049;-83
2022/04/19 05:23:35;;;;;;;9.63;7.18;;;;;;;;;;6245990;23;20016;-80
2022/04/19 05:26:01;;;;;;;7.63;6.53;;;;;;;;;;6245573;23;20000;-80
2022/04/19 05:28:27;;;;;;;9.30;6.20;;;;;;;;;;6244822;23;20003;-80
2022/04/19 05:30:53;;;;;;;8.50;6.55;;;;;;;;;;6245100;23;20439;-79
2022/04/19 05:33:20;;;;;;;8.32;6.40;;;;;;;;;;6243928;23;20073;-78
2022/04/19 05:35:46;;;;;;;6.63;5.93;;;;;;;;;;6245190;23;20408;-80
2022/04/19 05:38:12;;;;;;;7.75;6.95;;;;;;;;;;6245938;23;20040;-81
2022/04/19 05:40:41;;;;;;;8.52;6.88;;;;;;;;;;6246799;23;20090;-80
2022/04/19 05:43:07;;;;;;;8.80;7.00;;;;;;;;;;6244951;23;20058;-79
2022/04/19 05:45:34;;;;;;;7.90;6.68;;;;;;;;;;6245521;23;20004;-80
2022/04/19 05:48:00;;;;;;;8.32;5.80;;;;;;;;;;6241363;23;20004;-80
2022/04/19 05:50:27;;;;;;;7.15;5.60;;;;;;;;;;6242957;23;20470;-77
2022/04/19 05:52:53;;;;;;;6.35;5.50;;;;;;;;;;6244401;22;20015;-77
2022/04/19 05:55:19;;;;;;;10.10;8.40;;;;;;;;;;6244497;23;20439;-79
2022/04/19 05:57:45;;;;;;;8.38;6.15;;;;;;;;;;6217545;23;20039;-78
2022/04/19 06:00:11;;;;;;;6.68;5.57;;;;;;;;;;6217730;23;20008;-79
2022/04/19 06:05:23;;;;;;;6.15;5.53;;;;;;;;;;6244601;23;20023;-79
2022/04/19 06:07:52;;;;;;;6.68;5.78;;;;;;;;;;6245359;23;20000;-70
2022/04/19 06:10:18;;;;;;;8.70;6.60;;;;;;;;;;6244254;23;20284;-77
2022/04/19 06:12:44;;;;;;;10.93;6.85;;;;;;;;;;6245074;23;20030;-78
2022/04/19 06:15:11;;;;;;;7.47;6.55;;;;;;;;;;6245003;23;20004;-77
2022/04/19 06:17:38;;;;;;;8.13;6.72;;;;;;;;;;6245049;23;20004;-77
2022/04/19 06:20:05;;;;;;;6.80;5.35;;;;;;;;;;6244534;23;20542;-78
2022/04/19 06:22:32;;;;;;;10.20;7.78;;;;;;;;;;6244444;23;20039;-77
2022/04/19 06:24:58;;;;;;;8.07;5.95;;;;;;;;;;6244186;23;20401;-80
2022/04/19 06:27:24;;;;;;;5.57;4.63;;;;;;;;;;6244011;23;20010;-75
2022/04/19 06:29:52;;;;;;;6.28;5.20;;;;;;;;;;6216871;23;20062;-78
2022/04/19 06:32:19;;;;;;;6.45;5.75;;;;;;;;;;6244508;23;20008;-79
2022/04/19 06:34:47;;;;;;;8.27;5.65;;;;;;;;;;6244189;23;20008;-77
2022/04/19 06:37:13;;;;;;;5.68;5.10;;;;;;;;;;6244795;23;20000;-79
2022/04/19 06:39:39;;;;;;;9.02;5.97;;;;;;;;;;6244129;23;20075;-78
2022/04/19 06:42:05;;;;;;;15.80;10.93;;;;;;;;;;6244340;23;20537;-78
2022/04/19 06:44:31;;;;;;;7.10;6.15;;;;;;;;;;6244339;23;20016;-77
2022/04/19 06:46:58;;;;;;;9.45;5.82;;;;;;;;;;6244322;23;20385;-78
2022/04/19 06:49:24;;;;;;;5.72;5.18;;;;;;;;;;6243953;23;20081;-77
2022/04/19 06:51:50;;;;;;;8.90;7.30;;;;;;;;;;6217302;23;20113;-77
2022/04/19 06:54:16;;;;;;;9.73;7.53;;;;;;;;;;6244383;23;20012;-78
2022/04/19 06:56:45;;;;;;;6.03;5.15;;;;;;;;;;6243762;23;20027;-76
2022/04/19 06:59:11;;;;;;;9.88;6.15;;;;;;;;;;6244338;23;20509;-77
2022/04/19 07:01:40;;;;;;;6.07;5.32;;;;;;;;;;6243940;23;20112;-79
2022/04/19 07:04:07;;;;;;;7.45;6.65;;;;;;;;;;6243900;23;20018;-79
2022/04/19 07:06:34;;;;;;;7.10;6.00;;;;;;;;;;6242707;23;20020;-80
2022/04/19 07:09:00;;;;;;;5.93;4.80;;;;;;;;;;6243895;23;20374;-78
2022/04/19 07:11:26;;;;;;;6.68;5.00;;;;;;;;;;6243588;23;20589;-78
2022/04/19 07:13:52;;;;;;;7.43;5.82;;;;;;;;;;6243623;23;20028;-77
2022/04/19 07:16:19;;;;;;;9.65;6.00;;;;;;;;;;6243894;23;20007;-78
2022/04/19 07:18:45;;;;;;;11.02;6.53;;;;;;;;;;6244139;23;20023;-78
2022/04/19 07:26:47;;;;;;;5.82;4.63;;;;;;;;;;6243288;23;20023;-78
2022/04/19 07:29:15;;;;;;;9.23;5.18;;;;;;;;;;6244169;23;20443;-78
2022/04/19 07:31:41;;;;;;;7.65;4.50;;;;;;;;;;6216248;23;20008;-78
2022/04/19 07:34:08;;;;;;;8.32;4.97;;;;;;;;;;6242870;23;20553;-79
2022/04/19 07:36:35;;;;;;;5.63;4.53;;;;;;;;;;6244375;23;20050;-79
2022/04/19 07:39:04;;;;;;;6.60;4.30;;;;;;;;;;6243861;23;20014;-76
2022/04/19 07:41:34;;;;;;;5.38;4.38;;;;;;;;;;6243064;23;20363;-78
2022/04/19 07:44:01;;;;;;;5.35;4.20;;;;;;;;;;6243157;23;20038;-77
2022/04/19 07:46:28;;;;;;;4.78;4.00;;;;;;;;;;6243075;23;20183;-82
2022/04/19 07:48:54;;;;;;;8.32;5.78;;;;;;;;;;6216410;23;20008;-78
2022/04/19 07:51:21;;;;;;;5.20;4.38;;;;;;;;;;6243587;23;20046;-80
2022/04/19 07:53:47;;;;;;;6.78;4.97;;;;;;;;;;6243021;23;20012;-81
2022/04/19 07:56:13;;;;;;;5.18;4.68;;;;;;;;;;6243986;23;20039;-82
2022/04/19 07:58:42;;;;;;;8.63;5.80;;;;;;;;;;6243241;23;20004;-78
2022/04/19 08:01:09;;;;;;;7.88;6.90;;;;;;;;;;6242871;23;20031;-81
2022/04/19 08:03:35;;;;;;;8.38;5.00;;;;;;;;;;6243752;23;20055;-83
2022/04/19 08:06:01;;;;;;;5.28;4.20;;;;;;;;;;6217003;23;20368;-81
2022/04/19 08:08:27;;;;;;;6.55;4.47;;;;;;;;;;6244220;23;20004;-79
2022/04/19 08:10:56;;;;;;;4.25;3.85;;;;;;;;;;6242434;23;20066;-79
2022/04/19 08:13:22;;;;;;;5.43;3.60;;;;;;;;;;6216407;23;20000;-79
2022/04/19 08:15:48;;;;;;;5.43;4.10;;;;;;;;;;6243423;23;20014;-79
2022/04/19 08:18:15;;;;;;;4.90;4.10;;;;;;;;;;6243082;23;20003;-78
2022/04/19 08:20:42;;;;;;;8.60;5.35;;;;;;;;;;6241962;23;20013;-78
2022/04/19 08:23:08;;;;;;;4.93;3.90;;;;;;;;;;6243343;23;20016;-80
2022/04/19 08:25:35;;;;;;;5.43;4.63;;;;;;;;;;6243362;23;20009;-79
2022/04/19 08:28:01;;;;;;;8.15;4.72;;;;;;;;;;6243019;23;20062;-79
2022/04/19 08:30:28;;;;;;;5.00;4.40;;;;;;;;;;6216634;23;20019;-77
2022/04/19 08:32:54;;;;;;;5.35;4.40;;;;;;;;;;6242309;23;20056;-79
2022/04/19 08:35:20;;;;;;;5.82;4.43;;;;;;;;;;6242966;23;20012;-77
2022/04/19 08:37:46;;;;;;;4.05;2.80;;;;;;;;;;6243280;23;20019;-80
2022/04/19 08:40:13;;;;;;;4.13;2.88;;;;;;;;;;6242986;23;20007;-80
2022/04/19 08:42:40;;;;;;;4.45;3.15;;;;;;;;;;6242769;23;20083;-82
2022/04/19 08:45:07;;;;;;;5.25;4.10;;;;;;;;;;6215729;23;20020;-79
2022/04/19 08:47:44;;;;;;;3.10;2.60;;;;;;;;;;6242818;23;20010;-68
2022/04/19 08:50:14;;;;;;;4.05;3.33;;;;;;;;;;6242512;23;20004;-82
2022/04/19 08:52:44;;;;;;;8.80;7.13;;;;;;;;;;6242473;22;20022;-82
2022/04/19 08:57:56;;;;;;;3.67;2.88;;;;;;;;;;6218234;23;20015;-78
2022/04/19 09:00:23;;;;;;;4.20;3.03;;;;;;;;;;6243524;23;20001;-77
2022/04/19 09:02:52;;;;;;;5.47;3.30;;;;;;;;;;6215890;23;20335;-79
2022/04/19 09:05:20;;;;;;;4.72;3.15;;;;;;;;;;6243521;23;20079;-80
2022/04/19 09:07:47;;;;;;;4.07;3.03;;;;;;;;;;6243158;23;20035;-81
2022/04/19 09:10:14;;;;;;;3.83;2.90;;;;;;;;;;6242521;23;20095;-78
2022/04/19 09:13:04;;;;;;;4.82;3.20;;;;;;;;;;6244654;23;20004;-78
2022/04/19 09:15:38;;;;;;;2.88;2.45;;;;;;;;;;6230228;23;20079;-78
2022/04/19 09:18:04;;;;;;;4.78;3.03;;;;;;;;;;6244739;23;20000;-79
2022/04/19 09:20:31;;;;;;;7.38;4.05;;;;;;;;;;6245343;23;20483;-80
2022/04/19 09:23:15;;;;;;;11.00;5.40;;;;;;;;;;6217197;23;20339;-79
2022/04/19 09:25:41;;;;;;;6.00;3.47;;;;;;;;;;6244682;23;20008;-80
2022/04/19 09:28:16;;;;;;;5.13;3.80;;;;;;;;;;6244879;23;20217;-81
2022/04/19 09:30:42;;;;;;;7.57;3.85;;;;;;;;;;6245491;23;20019;-80
2022/04/19 09:33:08;;;;;;;3.42;2.80;;;;;;;;;;6244781;23;20316;-80
2022/04/19 09:35:40;;;;;;;95.55;30.15;;;;;;;;;;6217675;23;20046;-82
2022/04/19 09:38:08;;;;;;;257.40;81.97;;;;;;;;;;6244326;23;20062;-81
2022/04/19 09:40:38;;;;;;;498.63;161.55;;;;;;;;;;6245672;23;20000;-82
2022/04/19 09:43:21;;;;;;;340.80;103.72;;;;;;;;;;6217824;23;20031;-79
2022/04/19 09:45:51;;;;;;;7.35;4.30;;;;;;;;;;6245005;23;20008;-78
2022/04/19 09:48:21;;;;;;;3.28;3.00;;;;;;;;;;6244858;23;20008;-80
2022/04/19 09:50:57;;;;;;;4.63;3.20;;;;;;;;;;6244758;23;20070;-80
2022/04/19 09:53:24;;;;;;;3.42;2.67;;;;;;;;;;6244064;23;20016;-78
2022/04/19 09:55:51;;;;;;;3.42;2.67;;;;;;;;;;6244073;23;20011;-77
2022/04/19 09:58:18;;;;;;;4.35;3.10;;;;;;;;;;6244390;23;20451;-77
2022/04/19 10:00:45;;;;;;;3.42;2.80;;;;;;;;;;6244618;23;20036;-79
2022/04/19 10:08:44;;;;;;;3.50;2.95;;;;;;;;;;6244693;23;20019;-77
2022/04/19 10:11:10;;;;;;;3.75;2.35;;;;;;;;;;6244036;23;20094;-77
2022/04/19 10:13:38;;;;;;;6.32;3.28;;;;;;;;;;6244573;23;20008;-78
2022/04/19 10:16:09;;;;;;;5.57;2.90;;;;;;;;;;6243390;23;20004;-79
2022/04/19 10:18:35;;;;;;;5.32;2.75;;;;;;;;;;6244679;23;20000;-79
2022/04/19 10:21:02;;;;;;;2.90;2.60;;;;;;;;;;6217516;23;20006;-78
2022/04/19 10:23:35;;;;;;;3.38;3.08;;;;;;;;;;6243826;23;20407;-78
2022/04/19 10:26:20;;;;;;;3.30;2.47;;;;;;;;;;6244336;23;20046;-80
2022/04/19 10:28:53;;;;;;;4.93;2.72;;;;;;;;;;6244598;23;20121;-80
2022/04/19 10:31:35;;;;;;;3.38;2.65;;;;;;;;;;6244133;23;20068;-78
2022/04/19 10:34:02;;;;;;;2.95;2.65;;;;;;;;;;6243451;23;20028;-79
2022/04/19 10:36:34;;;;;;;6.57;3.30;;;;;;;;;;6244134;23;20011;-77
2022/04/19 10:39:13;;;;;;;5.47;3.25;;;;;;;;;;6244308;23;20015;-77
2022/04/19 10:41:49;;;;;;;4.35;2.85;;;;;;;;;;6217127;23;20083;-78
2022/04/19 10:44:26;;;;;;;9.30;3.63;;;;;;;;;;6244049;23;20019;-77
2022/04/19 10:47:13;;;;;;;3.72;2.60;;;;;;;;;;6244607;23;20323;-78
2022/04/19 10:49:57;;;;;;;3.22;2.58;;;;;;;;;;6243109;23;20008;-79
2022/04/19 10:52:23;;;;;;;;;;;;;;;;;;6244002;23;20004;-79
2022/04/19 10:55:08;;;;;;;2.70;2.38;;;;;;;;;;6244151;23;19968;-77
2022/04/19 11:00:29;;;;;;;2.90;2.53;;;;;;;;;;6243889;23;20015;-78
2022/04/19 11:03:00;;;;;;;2.78;2.35;;;;;;;;;;6244262;23;20004;-80
2022/04/19 11:05:45;;;;;;;3.35;2.78;;;;;;;;;;6244110;23;20026;-77
2022/04/19 11:08:26;;;;;;;10.55;9.27;;;;;;;;;;6243604;23;20101;-77
2022/04/19 11:10:52;;;;;;;4.00;2.90;;;;;;;;;;6243560;23;20027;-78
2022/04/19 11:13:19;;;;;;;3.92;3.10;;;;;;;;;;6243726;23;20079;-78
2022/04/19 11:15:58;;;;;;;3.58;3.15;;;;;;;;;;6243486;23;20012;-78
2022/04/19 11:18:25;;;;;;;4.07;2.83;;;;;;;;;;6243713;23;20531;-76
2022/04/19 11:20:52;;;;;;;3.13;2.75;;;;;;;;;;6244213;23;20083;-81
2022/04/19 11:23:19;;;;;;;9.27;4.65;;;;;;;;;;6217001;23;20016;-79
2022/04/19 11:25:46;;;;;;;2.80;2.60;;;;;;;;;;6243479;23;20034;-79
2022/04/19 11:28:12;;;;;;;3.30;3.00;;;;;;;;;;6243529;23;20047;-81
2022/04/19 11:30:58;;;;;;;3.13;2.83;;;;;;;;;;6242505;23;20100;-78
2022/04/19 11:33:31;;;;;;;6.63;3.40;;;;;;;;;;6222417;23;20011;-80
2022/04/19 11:35:59;;;;;;;7.03;3.75;;;;;;;;;;6243491;23;20004;-75
2022/04/19 11:38:25;;;;;;;11.27;5.25;;;;;;;;;;6242938;23;20019;-78
2022/04/19 11:49:07;;;;;;;4.30;3.38;;;;;;;;;;6243851;23;20069;-78
2022/04/19 11:51:36;;;;;;;7.70;4.38;;;;;;;;;;6243327;23;20004;-78
2022/04/19 11:54:03;;;;;;;18.20;7.57;;;;;;;;;;6243578;23;20011;-80
2022/04/19 11:56:29;;;;;;;9.27;5.15;;;;;;;;;;6244593;23;20004;-78
2022/04/19 11:58:58;;;;;;;3.53;2.60;;;;;;;;;;6217674;23;20008;-78
2022/04/19 12:01:24;;;;;;;14.90;8.93;;;;;;;;;;6245144;23;20137;-81
2022/04/19 12:03:50;;;;;;;5.38;4.25;;;;;;;;;;6244693;23;20012;-79
2022/04/19 12:06:21;;;;;;;4.22;3.65;;;;;;;;;;6244698;23;20002;-77
2022/04/19 12:08:49;;;;;;;4.43;2.67;;;;;;;;;;6244612;23;20004;-75
2022/04/19 12:11:17;;;;;;;4.78;3.15;;;;;;;;;;6245250;23;20020;-78
2022/04/19 12:13:44;;;;;;;6.00;4.55;;;;;;;;;;6245388;23;20054;-75
2022/04/19 12:16:29;;;;;;;5.90;4.03;;;;;;;;;;6246032;23;20066;-84
2022/04/19 12:18:57;;;;;;;6.38;4.43;;;;;;;;;;6241899;23;20008;-78
2022/04/19 12:21:39;;;;;;;6.35;4.50;;;;;;;;;;6243885;23;20424;-81
2022/04/19 12:24:11;;;;;;;4.18;3.05;;;;;;;;;;6245339;23;20070;-85
2022/04/19 12:26:38;;;;;;;4.45;3.00;;;;;;;;;;6217148;23;20015;-80
2022/04/19 12:29:09;;;;;;;3.33;2.65;;;;;;;;;;6245127;23;20000;-78
2022/04/19 12:34:44;;;;;;;6.15;3.70;;;;;;;;;;6214795;23;20009;-80
2022/04/19 12:37:14;;;;;;;50.42;19.77;;;;;;;;;;6244727;23;20004;-79
2022/04/19 12:39:42;;;;;;;6.18;4.15;;;;;;;;;;6244576;23;19996;-78
2022/04/19 12:42:12;;;;;;;3.35;2.63;;;;;;;;;;6244637;23;20001;-80
2022/04/19 12:44:40;;;;;;;3.90;2.85;;;;;;;;;;6244129;23;20070;-77
2022/04/19 12:47:25;;;;;;;3.75;2.55;;;;;;;;;;6244716;23;20004;-77
2022/04/19 12:49:51;;;;;;;;;;;;;;;;;;6244826;23;20071;-79
2022/04/19 12:52:17;;;;;;;4.30;3.03;;;;;;;;;;6244808;23;19907;-79
2022/04/19 12:54:44;;;;;;;5.13;4.05;;;;;;;;;;6244069;23;20016;-78
2022/04/19 12:57:10;;;;;;;5.53;2.85;;;;;;;;;;6244727;23;20011;-77
2022/04/19 12:59:36;;;;;;;2.90;2.53;;;;;;;;;;6244469;23;20372;-77
2022/04/19 13:02:03;;;;;;;2.95;2.40;;;;;;;;;;6244960;23;20027;-79
2022/04/19 13:04:29;;;;;;;4.00;3.35;;;;;;;;;;6244572;23;20087;-79
2022/04/19 13:12:26;;;;;;;3.33;2.28;;;;;;;;;;6245008;23;20502;-78
2022/04/19 13:15:11;;;;;;;3.22;2.20;;;;;;;;;;6244820;23;20360;-76
2022/04/19 13:17:39;;;;;;;4.03;3.35;;;;;;;;;;6244470;23;20054;-78
2022/04/19 13:20:06;;;;;;;4.10;3.00;;;;;;;;;;6244196;23;20000;-78
2022/04/19 13:22:33;;;;;;;4.03;3.60;;;;;;;;;;6244222;23;20080;-79
2022/04/19 13:24:59;;;;;;;3.33;2.63;;;;;;;;;;6244150;23;20103;-79
2022/04/19 13:27:26;;;;;;;3.00;2.35;;;;;;;;;;6217388;23;20443;-78
2022/04/19 13:29:52;;;;;;;3.10;2.80;;;;;;;;;;6243784;23;20051;-77
2022/04/19 13:35:04;;;;;;;13.00;6.50;;;;;;;;;;6244550;23;20343;-79
2022/04/19 13:40:17;;;;;;;4.95;4.45;;;;;;;;;;6244880;23;20030;-80
2022/04/19 13:42:43;;;;;;;2.95;2.63;;;;;;;;;;6245144;23;19996;-79
2022/04/19 13:45:09;;;;;;;6.50;4.07;;;;;;;;;;6244278;23;20043;-81
2022/04/19 13:47:35;;;;;;;3.40;3.10;;;;;;;;;;6244766;23;20324;-80
2022/04/19 13:50:02;;;;;;;3.88;2.88;;;;;;;;;;6245319;23;20078;-79
2022/04/19 13:52:28;;;;;;;6.05;3.70;;;;;;;;;;6218319;23;20008;-79
2022/04/19 13:54:54;;;;;;;6.03;3.72;;;;;;;;;;6245196;23;20012;-79
2022/04/19 13:57:20;;;;;;;3.10;2.50;;;;;;;;;;6245501;23;20028;-79
2022/04/19 13:59:49;;;;;;;5.13;3.30;;;;;;;;;;6246786;23;20420;-81
2022/04/19 14:02:15;;;;;;;4.65;3.78;;;;;;;;;;6247063;23;20098;-79
2022/04/19 14:04:41;;;;;;;6.03;4.10;;;;;;;;;;6246795;23;20012;-78
2022/04/19 14:07:08;;;;;;;9.35;6.40;;;;;;;;;;6247055;23;20024;-79
2022/04/19 14:09:35;;;;;;;9.80;5.95;;;;;;;;;;6246505;23;20004;-80
2022/04/19 14:12:02;;;;;;;7.85;6.40;;;;;;;;;;6246756;23;20012;-81
2022/04/19 14:14:28;;;;;;;3.28;2.70;;;;;;;;;;6246787;23;20008;-80
2022/04/19 14:16:54;;;;;;;22.50;16.33;;;;;;;;;;6247182;23;20070;-81
2022/04/19 14:19:22;;;;;;;8.85;6.38;;;;;;;;;;6246816;23;20000;-80
2022/04/19 14:21:49;;;;;;;6.70;3.90;;;;;;;;;;6219467;23;20007;-83
2022/04/19 14:24:15;;;;;;;6.00;4.80;;;;;;;;;;6245439;23;20004;-80
2022/04/19 14:26:41;;;;;;;8.60;4.75;;;;;;;;;;6247194;23;20070;-80
2022/04/19 14:34:50;;;;;;;2.67;2.47;;;;;;;;;;6185952;23;19904;-80
2022/04/19 14:37:17;;;;;;;4.60;3.00;;;;;;;;;;6247159;23;20070;-79
2022/04/19 14:39:43;;;;;;;4.80;2.60;;;;;;;;;;6221134;23;20000;-80
2022/04/19 14:42:09;;;;;;;4.95;2.80;;;;;;;;;;6247286;23;20351;-81
2022/04/19 14:44:35;;;;;;;4.40;2.65;;;;;;;;;;6247075;23;20008;-80
2022/04/19 14:47:01;;;;;;;4.72;3.17;;;;;;;;;;6220448;23;20335;-80
2022/04/19 14:49:27;;;;;;;5.50;3.10;;;;;;;;;;6247185;23;20031;-81
2022/04/19 14:52:14;;;;;;;2.95;2.67;;;;;;;;;;6247026;23;20100;-82
2022/04/19 14:54:41;;;;;;;7.10;5.13;;;;;;;;;;6247292;23;20008;-80
2022/04/19 14:57:07;;;;;;;6.07;3.92;;;;;;;;;;6247334;23;20008;-80
2022/04/19 14:59:33;;;;;;;8.43;4.15;;;;;;;;;;6247155;23;20004;-81
2022/04/19 15:02:00;;;;;;;6.43;3.83;;;;;;;;;;6247246;23;20004;-78
2022/04/19 15:04:26;;;;;;;4.63;3.53;;;;;;;;;;6246928;23;20078;-78
2022/04/19 15:06:52;;;;;;;5.40;3.70;;;;;;;;;;6247209;23;20027;-81
2022/04/19 15:09:19;;;;;;;4.65;2.88;;;;;;;;;;6246757;23;20010;-80
2022/04/19 15:11:45;;;;;;;4.28;3.17;;;;;;;;;;6247271;23;20004;-78
2022/04/19 15:14:12;;;;;;;5.15;3.95;;;;;;;;;;6247000;23;20071;-79
2022/04/19 15:16:38;;;;;;;3.42;2.97;;;;;;;;;;6247040;23;20011;-81
2022/04/19 15:19:04;;;;;;;5.00;3.67;;;;;;;;;;6246906;23;20066;-79
2022/04/19 15:21:31;;;;;;;3.08;2.53;;;;;;;;;;6246919;23;20483;-79
2022/04/19 15:23:57;;;;;;;4.32;3.13;;;;;;;;;;6246852;23;20012;-78
2022/04/19 15:26:23;;;;;;;5.80;3.45;;;;;;;;;;6247055;23;20000;-81
2022/04/19 15:28:49;;;;;;;4.28;2.58;;;;;;;;;;6247017;23;20023;-79
2022/04/19 15:31:16;;;;;;;3.85;2.80;;;;;;;;;;6246833;23;20004;-81
2022/04/19 15:33:42;;;;;;;3.03;2.20;;;;;;;;;;6246884;23;20007;-78
2022/04/19 15:36:08;;;;;;;4.28;3.33;;;;;;;;;;6246758;23;20036;-78
2022/04/19 15:38:34;;;;;;;2.72;2.40;;;;;;;;;;6246855;23;20046;-80
2022/04/19 15:41:01;;;;;;;5.70;4.15;;;;;;;;;;6246596;23;20011;-79
2022/04/19 15:43:27;;;;;;;10.90;8.18;;;;;;;;;;6246628;23;20083;-79
2022/04/19 15:45:53;;;;;;;17.17;14.23;;;;;;;;;;6246743;23;20004;-81